George T. Moran — WDH5386 — position and weather

sailwx.info

Track history (hours):
 
Tides and Currents Weather Stations Pressure Air Temp Water Temp Dewpoint Dewpoint Depression Visibility Wind Speed Wind Dir Waves Ship Positions

George T. Moran

Owner: Moran Towing Corporation, New Canaan, CT. More information available from US FCC via Universal Licensing System and Coast Guard Vessel Documentation Center.

Last reported at 2018-Jan-21 20:00 UTC. Time now 2018-Jan-21 20:25 UTC.
Position N 25°46' W 080°10'.

Length 28 m; draft 5 m.

Type: Tug. MMSI: 367627450.

Date/timePositionNaut miles runAvg speedWind from/ knotsBaromVisibWave heightAir tempDewpointWater temp
2018-Jan-21 20:00N 25°46' W 080°10'0 0.0
2018-Jan-21 19:30N 25°46' W 080°10'0 0.0
2018-Jan-21 19:00N 25°46' W 080°10'0 0.0
2018-Jan-21 18:30N 25°46' W 080°10'0 0.0
2018-Jan-21 18:00N 25°46' W 080°10'0 0.2
2018-Jan-21 17:31N 25°46' W 080°10'1 2.2
2018-Jan-21 17:00N 25°46' W 080°09'0 0.3
2018-Jan-21 16:30N 25°46' W 080°09'1 2.3
2018-Jan-21 16:00N 25°46' W 080°10'0 0.1
2018-Jan-21 15:30N 25°46' W 080°10'0 0.0
2018-Jan-21 15:00N 25°46' W 080°10'0 0.7
2018-Jan-21 14:31N 25°46' W 080°10'2 3.0
2018-Jan-21 14:00N 25°46' W 080°08'2 3.4
2018-Jan-21 13:30N 25°46' W 080°10'0 0.2
2018-Jan-21 13:00N 25°46' W 080°10'0 0.0
2018-Jan-21 12:30N 25°46' W 080°10'0 0.0
2018-Jan-21 12:00N 25°46' W 080°10'0 0.7
2018-Jan-21 11:30N 25°46' W 080°10'2 3.2
2018-Jan-21 11:01N 25°46' W 080°09'0 0.1
2018-Jan-21 10:30N 25°46' W 080°09'1 1.7
2018-Jan-21 10:00N 25°46' W 080°09'1 1.2
2018-Jan-21 09:30N 25°46' W 080°10'2 3.1
2018-Jan-21 09:00N 25°46' W 080°08'1 2.7
2018-Jan-21 08:30N 25°45' W 080°07'0 0.5
2018-Jan-21 08:01N 25°46' W 080°07'3 5.9
2018-Jan-21 07:30N 25°47' W 080°10'0 0.9
2018-Jan-21 07:00N 25°47' W 080°11'0 0.0
2018-Jan-21 06:30N 25°47' W 080°11'0 0.0
2018-Jan-21 06:00N 25°47' W 080°11'0 0.0
2018-Jan-21 05:30N 25°47' W 080°11'0 0.0
2018-Jan-21 05:00N 25°47' W 080°11'0 0.0
2018-Jan-21 04:30N 25°47' W 080°11'0 0.0
2018-Jan-21 04:00N 25°47' W 080°11'0 0.0
2018-Jan-21 03:30N 25°47' W 080°11'0 0.0
2018-Jan-21 03:00N 25°47' W 080°11'0 0.0
2018-Jan-21 02:30N 25°47' W 080°11'0 0.0
2018-Jan-21 02:00N 25°47' W 080°11'0 0.0
2018-Jan-21 01:30N 25°47' W 080°11'0 0.0
2018-Jan-21 01:01N 25°47' W 080°11'0 0.0
2018-Jan-21 00:30N 25°47' W 080°11'0 0.0
2018-Jan-21 00:00N 25°47' W 080°11'0 0.0
2018-Jan-20 23:30N 25°47' W 080°11'1 2.8
2018-Jan-20 23:00N 25°46' W 080°09'0 0.9
2018-Jan-20 22:31N 25°46' W 080°09'0 0.4
2018-Jan-20 22:01N 25°46' W 080°09'0 0.1
2018-Jan-20 21:30N 25°46' W 080°09'0 0.0
2018-Jan-20 21:00N 25°46' W 080°09'1 1.1
2018-Jan-20 20:30N 25°46' W 080°08'0 0.5
2018-Jan-20 20:00N 25°46' W 080°09'0 0.0
2018-Jan-20 19:30N 25°46' W 080°09'1 1.7
2018-Jan-20 18:59N 25°46' W 080°10'1 2.5
2018-Jan-20 18:31N 25°47' W 080°11'0 0.0
2018-Jan-20 18:01N 25°47' W 080°11'0 0.0
2018-Jan-20 17:31N 25°47' W 080°11'0 0.0
2018-Jan-20 17:00N 25°47' W 080°11'0 0.0
2018-Jan-20 16:30N 25°47' W 080°11'0 0.0
2018-Jan-20 16:01N 25°47' W 080°11'0 0.0
2018-Jan-20 15:30N 25°47' W 080°11'0 0.0
2018-Jan-20 15:00N 25°47' W 080°11'0 0.0
2018-Jan-20 14:30N 25°47' W 080°11'2 3.4
2018-Jan-20 14:01N 25°46' W 080°09'1 1.4
2018-Jan-20 13:31N 25°46' W 080°10'0 0.7
2018-Jan-20 13:01N 25°46' W 080°09'0 0.3
2018-Jan-20 12:30N 25°46' W 080°09'0 0.1
2018-Jan-20 12:00N 25°46' W 080°09'1 1.7
2018-Jan-20 11:31N 25°46' W 080°10'1 2.8
2018-Jan-20 11:00N 25°46' W 080°09'3 5.1
2018-Jan-20 10:30N 25°46' W 080°06'1 1.6
2018-Jan-20 10:00N 25°45' W 080°07'3 6.1
2018-Jan-20 09:30N 25°46' W 080°10'0 0.0
2018-Jan-20 09:01N 25°46' W 080°10'0 0.0
2018-Jan-20 08:30N 25°46' W 080°10'0 0.0
2018-Jan-20 08:00N 25°46' W 080°10'0 0.0
2018-Jan-20 07:30N 25°46' W 080°10'0 0.0
2018-Jan-20 07:00N 25°46' W 080°10'0 0.0
2018-Jan-20 06:31N 25°46' W 080°10'0 0.0
2018-Jan-20 06:00N 25°46' W 080°10'0 0.0
2018-Jan-20 05:30N 25°46' W 080°10'0 0.0
2018-Jan-20 05:01N 25°46' W 080°10'0 0.0
2018-Jan-20 04:31N 25°46' W 080°10'0 0.0
2018-Jan-20 04:00N 25°46' W 080°10'0 0.0
2018-Jan-20 03:30N 25°46' W 080°10'0 0.0
2018-Jan-20 03:00N 25°46' W 080°10'0 0.0
2018-Jan-20 02:30N 25°46' W 080°10'0 0.0
2018-Jan-20 02:00N 25°46' W 080°10'0 0.0
2018-Jan-20 01:30N 25°46' W 080°10'0 0.0
2018-Jan-20 01:01N 25°46' W 080°10'0 0.0
2018-Jan-20 00:31N 25°46' W 080°10'1 2.8
2018-Jan-20 00:00N 25°46' W 080°08'1 3.0
2018-Jan-19 23:30N 25°46' W 080°10'0 0.1
2018-Jan-19 23:00N 25°46' W 080°10'0 0.1
2018-Jan-19 22:30N 25°46' W 080°10'0 0.0
2018-Jan-19 22:00N 25°46' W 080°10'0 0.0
2018-Jan-19 21:30N 25°46' W 080°10'0 0.0
2018-Jan-19 21:00N 25°46' W 080°10'1 1.5
2018-Jan-19 20:30N 25°46' W 080°09'0 0.8
2018-Jan-19 20:00N 25°46' W 080°10'0 0.0
2018-Jan-19 19:30N 25°46' W 080°10'0 0.5
2018-Jan-19 19:00N 25°46' W 080°10'0 0.0
2018-Jan-19 18:30N 25°46' W 080°10'0 0.0
2018-Jan-19 18:00N 25°46' W 080°10'0 0.0
2018-Jan-19 17:30N 25°46' W 080°10'1 1.8
2018-Jan-19 17:00N 25°46' W 080°09'2 3.1
2018-Jan-19 16:30N 25°46' W 080°07'0 0.4
2018-Jan-19 16:00N 25°45' W 080°07'3 6.4
2018-Jan-19 15:31N 25°47' W 080°10'0 0.9
2018-Jan-19 15:00N 25°47' W 080°11'0 0.0
2018-Jan-19 14:30N 25°47' W 080°11'0 0.0
2018-Jan-19 14:01N 25°47' W 080°11'0 0.0
2018-Jan-19 13:30N 25°47' W 080°11'0 0.0
2018-Jan-19 13:01N 25°47' W 080°11'0 0.0
2018-Jan-19 12:30N 25°47' W 080°11'0 0.0
2018-Jan-19 12:01N 25°47' W 080°11'0 0.0
2018-Jan-19 11:30N 25°47' W 080°11'0 0.0
2018-Jan-19 11:01N 25°47' W 080°11'0 0.0
2018-Jan-19 10:31N 25°47' W 080°11'0 0.0
2018-Jan-19 10:01N 25°47' W 080°11'0 0.0
2018-Jan-19 09:30N 25°47' W 080°11'0 0.0
2018-Jan-19 09:00N 25°47' W 080°11'0 0.0
2018-Jan-19 08:30N 25°47' W 080°11'0 0.0
2018-Jan-19 08:00N 25°47' W 080°11'0 0.0
2018-Jan-19 07:30N 25°47' W 080°11'0 0.0
2018-Jan-19 07:00N 25°47' W 080°11'0 0.0
2018-Jan-19 06:30N 25°47' W 080°11'0 0.0
2018-Jan-19 06:00N 25°47' W 080°11'0 0.0
2018-Jan-19 05:30N 25°47' W 080°11'0 0.0
2018-Jan-19 05:00N 25°47' W 080°11'0 0.0
2018-Jan-19 04:31N 25°47' W 080°11'0 0.0
2018-Jan-19 04:00N 25°47' W 080°11'0 0.0
2018-Jan-19 03:30N 25°47' W 080°11'0 0.0
2018-Jan-19 03:00N 25°47' W 080°11'0 0.0
2018-Jan-19 02:30N 25°47' W 080°11'0 0.0
2018-Jan-19 02:00N 25°47' W 080°11'0 0.0
2018-Jan-19 01:31N 25°47' W 080°11'0 0.0
2018-Jan-19 01:00N 25°47' W 080°11'0 0.0
2018-Jan-19 00:31N 25°47' W 080°11'0 0.0
2018-Jan-19 00:00N 25°47' W 080°11'0 0.0
2018-Jan-18 23:31N 25°47' W 080°11'1 2.2
2018-Jan-18 23:00N 25°46' W 080°10'0 1.0
2018-Jan-18 22:31N 25°46' W 080°10'1 2.9
2018-Jan-18 22:01N 25°46' W 080°09'0 0.4
2018-Jan-18 21:30N 25°46' W 080°09'1 1.7
2018-Jan-18 21:00N 25°46' W 080°10'1 1.4
2018-Jan-18 20:30N 25°46' W 080°09'1 1.6
2018-Jan-18 20:00N 25°46' W 080°08'2 3.5
2018-Jan-18 19:30N 25°46' W 080°10'0 0.0
2018-Jan-18 19:01N 25°46' W 080°10'0 0.0
2018-Jan-18 18:30N 25°46' W 080°10'0 0.0
2018-Jan-18 18:00N 25°46' W 080°10'0 0.0
2018-Jan-18 17:30N 25°46' W 080°10'0 0.0
2018-Jan-18 17:01N 25°46' W 080°10'0 0.0
2018-Jan-18 16:31N 25°46' W 080°10'0 0.0
2018-Jan-18 16:00N 25°46' W 080°10'0 0.0
2018-Jan-18 15:31N 25°46' W 080°10'0 0.0
2018-Jan-18 15:00N 25°46' W 080°10'0 0.0
2018-Jan-18 14:30N 25°46' W 080°10'0 0.0
2018-Jan-18 14:00N 25°46' W 080°10'0 0.0
2018-Jan-18 13:31N 25°46' W 080°10'0 0.0
2018-Jan-18 13:00N 25°46' W 080°10'0 0.0
2018-Jan-18 12:31N 25°46' W 080°10'0 0.0
2018-Jan-18 12:00N 25°46' W 080°10'0 0.0
2018-Jan-18 11:31N 25°46' W 080°10'0 0.0
2018-Jan-18 11:00N 25°46' W 080°10'0 0.9
2018-Jan-18 10:30N 25°46' W 080°09'0 0.2
2018-Jan-18 10:00N 25°46' W 080°10'0 0.3
2018-Jan-18 09:30N 25°46' W 080°10'2 4.9
2018-Jan-18 09:00N 25°45' W 080°07'0 0.1
2018-Jan-18 08:30N 25°45' W 080°07'3 6.6
2018-Jan-18 08:00N 25°47' W 080°10'0 0.8
2018-Jan-18 07:31N 25°47' W 080°11'0 0.0
2018-Jan-18 07:00N 25°47' W 080°11'0 0.0
2018-Jan-18 06:30N 25°47' W 080°11'0 0.0
2018-Jan-18 06:00N 25°47' W 080°11'0 0.0
2018-Jan-18 05:30N 25°47' W 080°11'0 0.0
2018-Jan-18 05:01N 25°47' W 080°11'0 0.0
2018-Jan-18 04:31N 25°47' W 080°11'0 0.0
2018-Jan-18 04:00N 25°47' W 080°11'0 0.0
2018-Jan-18 03:31N 25°47' W 080°11'0 0.0
2018-Jan-18 03:01N 25°47' W 080°11'0 0.0
2018-Jan-18 02:30N 25°47' W 080°11'0 0.0
2018-Jan-18 02:00N 25°47' W 080°11'0 0.0
2018-Jan-18 01:30N 25°47' W 080°11'0 0.0
2018-Jan-18 01:00N 25°47' W 080°11'0 0.0
2018-Jan-18 00:00N 25°47' W 080°11'0 0.0
2018-Jan-17 23:58N 25°47' W 080°11'  
2018-Jan-12 15:00N 25°45' W 080°07'2 3.8
2018-Jan-12 14:30N 25°46' W 080°09'0 0.0
2018-Jan-12 14:00N 25°46' W 080°09'0 0.0
2018-Jan-12 13:30N 25°46' W 080°09'0 0.0
2018-Jan-12 13:00N 25°46' W 080°09'0 0.0
2018-Jan-12 12:30N 25°46' W 080°09'0 0.6
2018-Jan-12 12:00N 25°46' W 080°09'0 0.9
2018-Jan-12 11:31N 25°46' W 080°09'0 0.1
2018-Jan-12 11:01N 25°46' W 080°09'0 0.8
2018-Jan-12 10:30N 25°46' W 080°10'2 4.7
2018-Jan-12 10:00N 25°45' W 080°07'1 2.7
2018-Jan-12 09:30N 25°46' W 080°08'2 4.7
2018-Jan-12 09:00N 25°47' W 080°11'0 0.0
2018-Jan-12 08:31N 25°47' W 080°11'0 0.0
2018-Jan-12 08:00N 25°47' W 080°11'0 0.0
2018-Jan-12 07:30N 25°47' W 080°11'0 0.0
2018-Jan-12 07:01N 25°47' W 080°11'0 0.0
2018-Jan-12 06:30N 25°47' W 080°11'0 0.0
2018-Jan-12 06:00N 25°47' W 080°11'2 3.3
2018-Jan-12 05:27N 25°46' W 080°09'1 1.4
2018-Jan-12 05:01N 25°46' W 080°10'0 0.7
2018-Jan-12 04:30N 25°46' W 080°09'1 1.1
2018-Jan-12 03:59N 25°46' W 080°09'2 4.3
2018-Jan-12 03:30N 25°47' W 080°11'0 0.0
2018-Jan-12 03:01N 25°47' W 080°11'0 0.0
2018-Jan-12 02:31N 25°47' W 080°11'0 0.0
2018-Jan-12 02:01N 25°47' W 080°11'0 0.0
2018-Jan-12 01:31N 25°47' W 080°11'1 1.3
2018-Jan-12 01:00N 25°47' W 080°10'1 2.5
2018-Jan-12 00:30N 25°46' W 080°09'1 2.0
2018-Jan-11 23:58N 25°46' W 080°08'2 4.4
2018-Jan-11 23:30N 25°46' W 080°06'0 0.3
2018-Jan-11 23:01N 25°46' W 080°06'3 5.9
2018-Jan-11 22:30N 25°46' W 080°09'0 0.6
2018-Jan-11 22:00N 25°46' W 080°09'0 0.0
2018-Jan-11 21:31N 25°46' W 080°09'0 0.0
2018-Jan-11 21:00N 25°46' W 080°09'0 0.0
2018-Jan-11 20:30N 25°46' W 080°09'0 0.0
2018-Jan-11 20:00N 25°46' W 080°09'  
Track history (hours):
 
Tides and Currents Weather Stations Pressure Air Temp Water Temp Dewpoint Dewpoint Depression Visibility Wind Speed Wind Dir Waves Ship Positions

George T. Moran

Owner: Moran Towing Corporation, New Canaan, CT. More information available from US FCC via Universal Licensing System and Coast Guard Vessel Documentation Center.

Last reported at 2018-Jan-21 20:00 UTC. Time now 2018-Jan-21 20:25 UTC.
Position N 25°46' W 080°10'.

Length 28 m; draft 5 m.

Type: Tug. MMSI: 367627450.

Date/timePositionNaut miles runAvg speedWind from/ knotsBaromVisibWave heightAir tempDewpointWater temp
2018-Jan-21 20:00N 25°46' W 080°10'0 0.0
2018-Jan-21 19:30N 25°46' W 080°10'0 0.0
2018-Jan-21 19:00N 25°46' W 080°10'0 0.0
2018-Jan-21 18:30N 25°46' W 080°10'0 0.0
2018-Jan-21 18:00N 25°46' W 080°10'0 0.2
2018-Jan-21 17:31N 25°46' W 080°10'1 2.2
2018-Jan-21 17:00N 25°46' W 080°09'0 0.3
2018-Jan-21 16:30N 25°46' W 080°09'1 2.3
2018-Jan-21 16:00N 25°46' W 080°10'0 0.1
2018-Jan-21 15:30N 25°46' W 080°10'0 0.0
2018-Jan-21 15:00N 25°46' W 080°10'0 0.7
2018-Jan-21 14:31N 25°46' W 080°10'2 3.0
2018-Jan-21 14:00N 25°46' W 080°08'2 3.4
2018-Jan-21 13:30N 25°46' W 080°10'0 0.2
2018-Jan-21 13:00N 25°46' W 080°10'0 0.0
2018-Jan-21 12:30N 25°46' W 080°10'0 0.0
2018-Jan-21 12:00N 25°46' W 080°10'0 0.7
2018-Jan-21 11:30N 25°46' W 080°10'2 3.2
2018-Jan-21 11:01N 25°46' W 080°09'0 0.1
2018-Jan-21 10:30N 25°46' W 080°09'1 1.7
2018-Jan-21 10:00N 25°46' W 080°09'1 1.2
2018-Jan-21 09:30N 25°46' W 080°10'2 3.1
2018-Jan-21 09:00N 25°46' W 080°08'1 2.7
2018-Jan-21 08:30N 25°45' W 080°07'0 0.5
2018-Jan-21 08:01N 25°46' W 080°07'3 5.9
2018-Jan-21 07:30N 25°47' W 080°10'0 0.9
2018-Jan-21 07:00N 25°47' W 080°11'0 0.0
2018-Jan-21 06:30N 25°47' W 080°11'0 0.0
2018-Jan-21 06:00N 25°47' W 080°11'0 0.0
2018-Jan-21 05:30N 25°47' W 080°11'0 0.0
2018-Jan-21 05:00N 25°47' W 080°11'0 0.0
2018-Jan-21 04:30N 25°47' W 080°11'0 0.0
2018-Jan-21 04:00N 25°47' W 080°11'0 0.0
2018-Jan-21 03:30N 25°47' W 080°11'0 0.0
2018-Jan-21 03:00N 25°47' W 080°11'0 0.0
2018-Jan-21 02:30N 25°47' W 080°11'0 0.0
2018-Jan-21 02:00N 25°47' W 080°11'0 0.0
2018-Jan-21 01:30N 25°47' W 080°11'0 0.0
2018-Jan-21 01:01N 25°47' W 080°11'0 0.0
2018-Jan-21 00:30N 25°47' W 080°11'0 0.0
2018-Jan-21 00:00N 25°47' W 080°11'0 0.0
2018-Jan-20 23:30N 25°47' W 080°11'1 2.8
2018-Jan-20 23:00N 25°46' W 080°09'0 0.9
2018-Jan-20 22:31N 25°46' W 080°09'0 0.4
2018-Jan-20 22:01N 25°46' W 080°09'0 0.1
2018-Jan-20 21:30N 25°46' W 080°09'0 0.0
2018-Jan-20 21:00N 25°46' W 080°09'1 1.1
2018-Jan-20 20:30N 25°46' W 080°08'0 0.5
2018-Jan-20 20:00N 25°46' W 080°09'0 0.0
2018-Jan-20 19:30N 25°46' W 080°09'1 1.7
2018-Jan-20 18:59N 25°46' W 080°10'1 2.5
2018-Jan-20 18:31N 25°47' W 080°11'0 0.0
2018-Jan-20 18:01N 25°47' W 080°11'0 0.0
2018-Jan-20 17:31N 25°47' W 080°11'0 0.0
2018-Jan-20 17:00N 25°47' W 080°11'0 0.0
2018-Jan-20 16:30N 25°47' W 080°11'0 0.0
2018-Jan-20 16:01N 25°47' W 080°11'0 0.0
2018-Jan-20 15:30N 25°47' W 080°11'0 0.0
2018-Jan-20 15:00N 25°47' W 080°11'0 0.0
2018-Jan-20 14:30N 25°47' W 080°11'2 3.4
2018-Jan-20 14:01N 25°46' W 080°09'1 1.4
2018-Jan-20 13:31N 25°46' W 080°10'0 0.7
2018-Jan-20 13:01N 25°46' W 080°09'0 0.3
2018-Jan-20 12:30N 25°46' W 080°09'0 0.1
2018-Jan-20 12:00N 25°46' W 080°09'1 1.7
2018-Jan-20 11:31N 25°46' W 080°10'1 2.8
2018-Jan-20 11:00N 25°46' W 080°09'3 5.1
2018-Jan-20 10:30N 25°46' W 080°06'1 1.6
2018-Jan-20 10:00N 25°45' W 080°07'3 6.1
2018-Jan-20 09:30N 25°46' W 080°10'0 0.0
2018-Jan-20 09:01N 25°46' W 080°10'0 0.0
2018-Jan-20 08:30N 25°46' W 080°10'0 0.0
2018-Jan-20 08:00N 25°46' W 080°10'0 0.0
2018-Jan-20 07:30N 25°46' W 080°10'0 0.0
2018-Jan-20 07:00N 25°46' W 080°10'0 0.0
2018-Jan-20 06:31N 25°46' W 080°10'0 0.0
2018-Jan-20 06:00N 25°46' W 080°10'0 0.0
2018-Jan-20 05:30N 25°46' W 080°10'0 0.0
2018-Jan-20 05:01N 25°46' W 080°10'0 0.0
2018-Jan-20 04:31N 25°46' W 080°10'0 0.0
2018-Jan-20 04:00N 25°46' W 080°10'0 0.0
2018-Jan-20 03:30N 25°46' W 080°10'0 0.0
2018-Jan-20 03:00N 25°46' W 080°10'0 0.0
2018-Jan-20 02:30N 25°46' W 080°10'0 0.0
2018-Jan-20 02:00N 25°46' W 080°10'0 0.0
2018-Jan-20 01:30N 25°46' W 080°10'0 0.0
2018-Jan-20 01:01N 25°46' W 080°10'0 0.0
2018-Jan-20 00:31N 25°46' W 080°10'1 2.8
2018-Jan-20 00:00N 25°46' W 080°08'1 3.0
2018-Jan-19 23:30N 25°46' W 080°10'0 0.1
2018-Jan-19 23:00N 25°46' W 080°10'0 0.1
2018-Jan-19 22:30N 25°46' W 080°10'0 0.0
2018-Jan-19 22:00N 25°46' W 080°10'0 0.0
2018-Jan-19 21:30N 25°46' W 080°10'0 0.0
2018-Jan-19 21:00N 25°46' W 080°10'1 1.5
2018-Jan-19 20:30N 25°46' W 080°09'0 0.8
2018-Jan-19 20:00N 25°46' W 080°10'0 0.0
2018-Jan-19 19:30N 25°46' W 080°10'0 0.5
2018-Jan-19 19:00N 25°46' W 080°10'0 0.0
2018-Jan-19 18:30N 25°46' W 080°10'0 0.0
2018-Jan-19 18:00N 25°46' W 080°10'0 0.0
2018-Jan-19 17:30N 25°46' W 080°10'1 1.8
2018-Jan-19 17:00N 25°46' W 080°09'2 3.1
2018-Jan-19 16:30N 25°46' W 080°07'0 0.4
2018-Jan-19 16:00N 25°45' W 080°07'3 6.4
2018-Jan-19 15:31N 25°47' W 080°10'0 0.9
2018-Jan-19 15:00N 25°47' W 080°11'0 0.0
2018-Jan-19 14:30N 25°47' W 080°11'0 0.0
2018-Jan-19 14:01N 25°47' W 080°11'0 0.0
2018-Jan-19 13:30N 25°47' W 080°11'0 0.0
2018-Jan-19 13:01N 25°47' W 080°11'0 0.0
2018-Jan-19 12:30N 25°47' W 080°11'0 0.0
2018-Jan-19 12:01N 25°47' W 080°11'0 0.0
2018-Jan-19 11:30N 25°47' W 080°11'0 0.0
2018-Jan-19 11:01N 25°47' W 080°11'0 0.0
2018-Jan-19 10:31N 25°47' W 080°11'0 0.0
2018-Jan-19 10:01N 25°47' W 080°11'0 0.0
2018-Jan-19 09:30N 25°47' W 080°11'0 0.0
2018-Jan-19 09:00N 25°47' W 080°11'0 0.0
2018-Jan-19 08:30N 25°47' W 080°11'0 0.0
2018-Jan-19 08:00N 25°47' W 080°11'0 0.0
2018-Jan-19 07:30N 25°47' W 080°11'0 0.0
2018-Jan-19 07:00N 25°47' W 080°11'0 0.0
2018-Jan-19 06:30N 25°47' W 080°11'0 0.0
2018-Jan-19 06:00N 25°47' W 080°11'0 0.0
2018-Jan-19 05:30N 25°47' W 080°11'0 0.0
2018-Jan-19 05:00N 25°47' W 080°11'0 0.0
2018-Jan-19 04:31N 25°47' W 080°11'0 0.0
2018-Jan-19 04:00N 25°47' W 080°11'0 0.0
2018-Jan-19 03:30N 25°47' W 080°11'0 0.0
2018-Jan-19 03:00N 25°47' W 080°11'0 0.0
2018-Jan-19 02:30N 25°47' W 080°11'0 0.0
2018-Jan-19 02:00N 25°47' W 080°11'0 0.0
2018-Jan-19 01:31N 25°47' W 080°11'0 0.0
2018-Jan-19 01:00N 25°47' W 080°11'0 0.0
2018-Jan-19 00:31N 25°47' W 080°11'0 0.0
2018-Jan-19 00:00N 25°47' W 080°11'0 0.0
2018-Jan-18 23:31N 25°47' W 080°11'1 2.2
2018-Jan-18 23:00N 25°46' W 080°10'0 1.0
2018-Jan-18 22:31N 25°46' W 080°10'1 2.9
2018-Jan-18 22:01N 25°46' W 080°09'0 0.4
2018-Jan-18 21:30N 25°46' W 080°09'1 1.7
2018-Jan-18 21:00N 25°46' W 080°10'1 1.4
2018-Jan-18 20:30N 25°46' W 080°09'1 1.6
2018-Jan-18 20:00N 25°46' W 080°08'2 3.5
2018-Jan-18 19:30N 25°46' W 080°10'0 0.0
2018-Jan-18 19:01N 25°46' W 080°10'0 0.0
2018-Jan-18 18:30N 25°46' W 080°10'0 0.0
2018-Jan-18 18:00N 25°46' W 080°10'0 0.0
2018-Jan-18 17:30N 25°46' W 080°10'0 0.0
2018-Jan-18 17:01N 25°46' W 080°10'0 0.0
2018-Jan-18 16:31N 25°46' W 080°10'0 0.0
2018-Jan-18 16:00N 25°46' W 080°10'0 0.0
2018-Jan-18 15:31N 25°46' W 080°10'0 0.0
2018-Jan-18 15:00N 25°46' W 080°10'0 0.0
2018-Jan-18 14:30N 25°46' W 080°10'0 0.0
2018-Jan-18 14:00N 25°46' W 080°10'0 0.0
2018-Jan-18 13:31N 25°46' W 080°10'0 0.0
2018-Jan-18 13:00N 25°46' W 080°10'0 0.0
2018-Jan-18 12:31N 25°46' W 080°10'0 0.0
2018-Jan-18 12:00N 25°46' W 080°10'0 0.0
2018-Jan-18 11:31N 25°46' W 080°10'0 0.0
2018-Jan-18 11:00N 25°46' W 080°10'0 0.9
2018-Jan-18 10:30N 25°46' W 080°09'0 0.2
2018-Jan-18 10:00N 25°46' W 080°10'0 0.3
2018-Jan-18 09:30N 25°46' W 080°10'2 4.9
2018-Jan-18 09:00N 25°45' W 080°07'0 0.1
2018-Jan-18 08:30N 25°45' W 080°07'3 6.6
2018-Jan-18 08:00N 25°47' W 080°10'0 0.8
2018-Jan-18 07:31N 25°47' W 080°11'0 0.0
2018-Jan-18 07:00N 25°47' W 080°11'0 0.0
2018-Jan-18 06:30N 25°47' W 080°11'0 0.0
2018-Jan-18 06:00N 25°47' W 080°11'0 0.0
2018-Jan-18 05:30N 25°47' W 080°11'0 0.0
2018-Jan-18 05:01N 25°47' W 080°11'0 0.0
2018-Jan-18 04:31N 25°47' W 080°11'0 0.0
2018-Jan-18 04:00N 25°47' W 080°11'0 0.0
2018-Jan-18 03:31N 25°47' W 080°11'0 0.0
2018-Jan-18 03:01N 25°47' W 080°11'0 0.0
2018-Jan-18 02:30N 25°47' W 080°11'0 0.0
2018-Jan-18 02:00N 25°47' W 080°11'0 0.0
2018-Jan-18 01:30N 25°47' W 080°11'0 0.0
2018-Jan-18 01:00N 25°47' W 080°11'0 0.0
2018-Jan-18 00:00N 25°47' W 080°11'0 0.0
2018-Jan-17 23:58N 25°47' W 080°11'  
2018-Jan-12 15:00N 25°45' W 080°07'2 3.8
2018-Jan-12 14:30N 25°46' W 080°09'0 0.0
2018-Jan-12 14:00N 25°46' W 080°09'0 0.0
2018-Jan-12 13:30N 25°46' W 080°09'0 0.0
2018-Jan-12 13:00N 25°46' W 080°09'0 0.0
2018-Jan-12 12:30N 25°46' W 080°09'0 0.6
2018-Jan-12 12:00N 25°46' W 080°09'0 0.9
2018-Jan-12 11:31N 25°46' W 080°09'0 0.1
2018-Jan-12 11:01N 25°46' W 080°09'0 0.8
2018-Jan-12 10:30N 25°46' W 080°10'2 4.7
2018-Jan-12 10:00N 25°45' W 080°07'1 2.7
2018-Jan-12 09:30N 25°46' W 080°08'2 4.7
2018-Jan-12 09:00N 25°47' W 080°11'0 0.0
2018-Jan-12 08:31N 25°47' W 080°11'0 0.0
2018-Jan-12 08:00N 25°47' W 080°11'0 0.0
2018-Jan-12 07:30N 25°47' W 080°11'0 0.0
2018-Jan-12 07:01N 25°47' W 080°11'0 0.0
2018-Jan-12 06:30N 25°47' W 080°11'0 0.0
2018-Jan-12 06:00N 25°47' W 080°11'2 3.3
2018-Jan-12 05:27N 25°46' W 080°09'1 1.4
2018-Jan-12 05:01N 25°46' W 080°10'0 0.7
2018-Jan-12 04:30N 25°46' W 080°09'1 1.1
2018-Jan-12 03:59N 25°46' W 080°09'2 4.3
2018-Jan-12 03:30N 25°47' W 080°11'0 0.0
2018-Jan-12 03:01N 25°47' W 080°11'0 0.0
2018-Jan-12 02:31N 25°47' W 080°11'0 0.0
2018-Jan-12 02:01N 25°47' W 080°11'0 0.0
2018-Jan-12 01:31N 25°47' W 080°11'1 1.3
2018-Jan-12 01:00N 25°47' W 080°10'1 2.5
2018-Jan-12 00:30N 25°46' W 080°09'1 2.0
2018-Jan-11 23:58N 25°46' W 080°08'2 4.4
2018-Jan-11 23:30N 25°46' W 080°06'0 0.3
2018-Jan-11 23:01N 25°46' W 080°06'3 5.9
2018-Jan-11 22:30N 25°46' W 080°09'0 0.6
2018-Jan-11 22:00N 25°46' W 080°09'0 0.0
2018-Jan-11 21:31N 25°46' W 080°09'0 0.0
2018-Jan-11 21:00N 25°46' W 080°09'0 0.0
2018-Jan-11 20:30N 25°46' W 080°09'0 0.0
2018-Jan-11 20:00N 25°46' W 080°09'  

Dump ship's entire track history